Aérodrome :
LOGIN :

S'inscrire | Disclaimer

   EN    FR    IT 

 










Légende :    VFR   VFR Marginal   IFR   IFR Intensif   IFR Très Intensif
Visi : 
Plafond : 
>= 8 km
>= 3000ft
5 à 8 km
1000 à 3000 ft
1500m à 5 km
500 à 1000 ft
800 à 1500m
200 à 500 ft
< 800m
< 200 ft
Symboles :   Orages  Brouillard  Fortes neiges  Fortes précipitations  Vent > 20 kt
SIGMETs :   Divers  Orages  Givrage  Turbulence  Onde Orograph.  Cendres Volcan.






- Altitude de l'aérodrome : 49 ft
- Code IATA : GLZ


EHGR - Gilze-Rijen Airbase

DERNIER METAR :
  • 100925Z AUTO 04007KT 350V090 9999 NCD 14/06 Q1027 BLU 05007KT CAVOK

METARs EXPIRÉS :
  • 100855Z AUTO 06005KT 350V080 9999 NCD 13/06 Q1027 BLU 05007KT CAVOK
  • 100825Z AUTO 05006KT 350V090 9999 FEW270 12/05 Q1027 BLU 05007KT CAVOK
  • 100755Z AUTO 04006KT 350V100 9999 OVC390 10/05 Q1027 BLU 05007KT CAVOK
  • 100725Z AUTO 04007KT 350V090 9999 OVC390 09/04 Q1027 BLU 05007KT CAVOK
  • 100655Z AUTO 04008KT 350V080 9999 BKN290 OVC380 08/04 Q1027 BLU 05007KT CAVOK

TAF TAF EHGR
Valide du 10 à 09h jusqu'au 10 à 21h UTC


100835Z 1009/1021 06008KT CAVOK



MET'MAP, la Météo Aéronautique d'un coup d'oeil ! - Copyright ORBIFLY Décembre 2007 - Disclaimer

ORBIFLY MET'MAP TEAM :

Programmation & Développement : Alexandra Zaïnal
Sur une idée originale de : Baudouin d'Aumeries
Assistance à la programmation : Marc-Olivier Méhu
Soutien technique & logistique : Manuel Goepfert

Contact : metmap@orbifly.com




SOURCES & CREDITS :

   NOAA